Greenwood, Illinois
Current Conditions -  °F | °C
As of 8:35 PM on Sunday 25 Jan 2015 (Local Time) from KBUU Reporting Station
Clear Clear  
Wind Chill:   Ceiling: Unl
Heat Index: 16°   Visibility: 10mi
Dew Point: 11°   Wind: 6mph
Humidity: 79%   Direction: 360°N
Pressure: 30.01"   Gusts: NA
Location:  42.3247°N, 88.4593°W
Report Text: KBUU 260235Z AUTO 36005KT 10SM CLR M09/M12 A3001 RMK AO2 T10871118
Loading
Personal Weather Stations






























Interactive Weather Map New forecast layout! Learn more

10-Day Weather Forecast

Advertisements
Track Severe Weather on mobile